Time;durP1;ratioP1;P1;durP2;ratioP2;P2;SDS_P1;SDS_P2;PMS_P1;PMS_P2;Temp;Humidity;BMP_temperature;BMP_pressure;BME280_temperature;BME280_humidity;BME280_pressure;Samples;Min_cycle;Max_cycle;Signal;HPM_P1;HPM_P2
2023/01/02 00:03:50;;;;;;;12.53;8.43;;;;;;;8.43;73.52;101084.33;3290419;85;21223;-78
2023/01/02 00:08:41;;;;;;;14.87;8.73;;;;;;;8.36;73.75;101079.75;3289940;84;21270;-78
2023/01/02 00:13:33;;;;;;;11.97;8.43;;;;;;;8.31;73.79;101081.31;3248127;85;21003;-78
2023/01/02 00:18:25;;;;;;;12.05;8.10;;;;;;;8.26;73.90;101074.67;3268275;85;21062;-78
2023/01/02 00:23:16;;;;;;;13.40;8.63;;;;;;;8.24;74.14;101077.64;3252901;85;21137;-78
2023/01/02 00:28:07;;;;;;;11.08;8.20;;;;;;;8.25;74.26;101075.95;3264137;85;20979;-78
2023/01/02 00:32:58;;;;;;;11.85;7.92;;;;;;;8.27;74.37;101066.52;3260345;85;21184;-78
2023/01/02 00:37:48;;;;;;;14.28;8.98;;;;;;;8.28;74.55;101062.68;3311117;83;21061;-78
2023/01/02 00:42:40;;;;;;;13.48;8.63;;;;;;;8.28;74.67;101068.25;3310907;83;20976;-78
2023/01/02 00:47:32;;;;;;;12.45;8.83;;;;;;;8.27;74.68;101071.70;3311457;83;20983;-78
2023/01/02 00:52:23;;;;;;;12.95;9.35;;;;;;;8.27;74.90;101077.75;3295345;83;20948;-78
2023/01/02 00:57:15;;;;;;;13.62;8.40;;;;;;;8.29;74.80;101079.97;3311169;83;20998;-78
2023/01/02 01:02:06;;;;;;;13.55;9.00;;;;;;;8.31;74.94;101091.67;3332387;83;20990;-78
2023/01/02 01:06:57;;;;;;;10.53;8.03;;;;;;;8.33;75.01;101091.30;3325511;83;21679;-78
2023/01/02 01:11:48;;;;;;;17.00;8.85;;;;;;;8.38;75.12;101090.61;3331734;83;21007;-78
2023/01/02 01:16:39;;;;;;;11.15;7.83;;;;;;;8.39;75.15;101088.50;3331122;83;21019;-78
2023/01/02 01:21:30;;;;;;;11.15;8.40;;;;;;;8.43;75.27;101093.83;3357904;83;21060;-78
2023/01/02 01:26:22;;;;;;;14.80;8.75;;;;;;;8.44;75.43;101096.47;3302058;83;20979;-78
2023/01/02 01:31:15;;;;;;;13.75;8.45;;;;;;;8.48;75.54;101089.67;3310361;83;20936;-78
2023/01/02 01:36:11;;;;;;;10.72;8.45;;;;;;;8.51;75.59;101081.97;3340170;83;21003;-78
2023/01/02 01:41:05;;;;;;;12.07;8.43;;;;;;;8.55;75.62;101083.84;3336042;83;20991;-78
2023/01/02 01:45:56;;;;;;;12.85;8.95;;;;;;;8.57;75.62;101074.41;3293243;83;21096;-78
2023/01/02 01:50:48;;;;;;;15.30;8.40;;;;;;;8.57;75.70;101071.38;3337811;83;20979;-78
2023/01/02 01:55:45;;;;;;;11.08;8.68;;;;;;;8.60;75.69;101064.10;3310154;83;20977;-78
2023/01/02 02:00:38;;;;;;;11.57;9.03;;;;;;;8.61;75.67;101052.92;3352132;83;21211;-78
2023/01/02 02:05:31;;;;;;;14.93;10.08;;;;;;;8.61;75.63;101050.33;3271152;83;21006;-78
2023/01/02 02:10:22;;;;;;;13.10;9.00;;;;;;;8.59;75.69;101047.69;3318106;83;21385;-78
2023/01/02 02:15:17;;;;;;;13.68;8.35;;;;;;;8.59;75.71;101046.39;3336422;83;21031;-78
2023/01/02 02:20:23;;;;;;;14.20;9.15;;;;;;;8.59;75.80;101042.92;3335426;83;21025;-78
2023/01/02 02:25:48;;;;;;;13.68;9.08;;;;;;;8.58;75.79;101017.83;3355346;83;21591;-78
2023/01/02 02:31:03;;;;;;;12.37;9.20;;;;;;;8.57;76.00;101034.23;3346372;83;20983;-78
2023/01/02 02:36:18;;;;;;;13.70;8.90;;;;;;;8.56;76.07;101028.57;3343554;83;21093;-78
2023/01/02 02:41:35;;;;;;;12.63;7.80;;;;;;;8.55;76.14;101034.61;3334293;83;21794;-77
2023/01/02 02:46:51;;;;;;;14.90;8.30;;;;;;;8.57;76.32;101029.05;3306223;83;20948;-78
2023/01/02 02:52:08;;;;;;;10.68;8.50;;;;;;;8.56;76.45;101033.75;3309285;83;20976;-77
2023/01/02 02:57:01;;;;;;;15.40;9.48;;;;;;;8.58;76.53;101026.89;3328124;83;20990;-77
2023/01/02 03:01:52;;;;;;;13.62;8.78;;;;;;;8.55;76.47;101037.20;3299084;83;21050;-77
2023/01/02 03:07:16;;;;;;;12.50;9.08;;;;;;;8.47;76.48;101042.55;3326231;83;20899;-77
2023/01/02 03:12:50;;;;;;;13.30;9.23;;;;;;;8.38;76.53;101046.99;3352088;83;20983;-76
2023/01/02 03:18:02;;;;;;;11.73;8.08;;;;;;;8.32;76.69;101050.27;3354409;83;20975;-77
2023/01/02 03:22:58;;;;;;;12.53;8.68;;;;;;;8.30;76.94;101045.47;3319203;83;21581;-77
2023/01/02 03:27:52;;;;;;;15.85;10.10;;;;;;;8.32;77.12;101038.62;3331092;84;21151;-77
2023/01/02 03:33:04;;;;;;;12.20;9.05;;;;;;;8.33;77.01;101031.72;3320259;83;20959;-77
2023/01/02 03:37:58;;;;;;;13.32;9.00;;;;;;;8.35;77.09;101040.02;3336045;83;20975;-77
2023/01/02 03:43:01;;;;;;;15.63;9.85;;;;;;;8.37;77.10;101046.13;3326833;83;20972;-78
2023/01/02 03:48:10;;;;;;;14.95;9.60;;;;;;;8.38;77.09;101039.22;3353942;82;20940;-77
2023/01/02 03:53:03;;;;;;;15.88;9.70;;;;;;;8.39;77.17;101037.98;3315555;83;21019;-77
2023/01/02 03:58:02;;;;;;;12.93;9.85;;;;;;;8.42;77.23;101028.53;3322333;83;22170;-77
2023/01/02 04:03:25;;;;;;;16.42;9.60;;;;;;;8.44;77.23;101024.30;3352826;83;21003;-76
2023/01/02 04:08:40;;;;;;;13.32;9.40;;;;;;;8.44;77.24;101037.27;3352485;83;21101;-77
2023/01/02 04:13:46;;;;;;;14.60;9.65;;;;;;;8.40;77.24;101041.02;3356763;83;20995;-77
2023/01/02 04:18:45;;;;;;;11.80;8.93;;;;;;;8.40;77.30;101037.55;3334373;83;21516;-77
2023/01/02 04:23:51;;;;;;;11.43;8.58;;;;;;;8.38;77.48;101029.73;3320513;83;21525;-77
2023/01/02 04:28:43;;;;;;;15.98;10.05;;;;;;;8.39;77.50;101037.98;3355374;83;20939;-77
2023/01/02 04:33:51;;;;;;;18.15;9.33;;;;;;;8.38;77.44;101040.09;3339764;83;21563;-77
2023/01/02 04:38:44;;;;;;;14.07;9.68;;;;;;;8.38;77.43;101046.99;3331313;83;20935;-77
2023/01/02 04:43:35;;;;;;;12.70;9.38;;;;;;;8.36;77.37;101057.73;3331107;83;21552;-77
2023/01/02 04:48:26;;;;;;;13.10;11.00;;;;;;;8.30;77.44;101064.90;3350304;83;20947;-78
2023/01/02 04:53:17;;;;;;;13.53;9.47;;;;;;;8.29;77.53;101068.30;3299973;83;21070;-78
2023/01/02 04:58:08;;;;;;;13.75;9.43;;;;;;;8.27;77.62;101059.61;3334555;83;21330;-77
2023/01/02 05:03:01;;;;;;;14.07;10.20;;;;;;;8.26;77.71;101063.02;3330378;83;21113;-78
2023/01/02 05:07:52;;;;;;;14.45;9.30;;;;;;;8.26;77.83;101056.97;3327976;83;21555;-77
2023/01/02 05:12:43;;;;;;;14.33;8.95;;;;;;;8.26;77.99;101044.88;3298972;83;20960;-77
2023/01/02 05:17:40;;;;;;;12.68;8.63;;;;;;;8.26;78.10;101033.23;3292731;83;21541;-77
2023/01/02 05:27:41;;;;;;;14.33;9.83;;;;;;;8.28;78.28;101019.94;3324361;83;21014;-77
2023/01/02 05:32:32;;;;;;;15.63;10.67;;;;;;;8.30;78.48;101009.20;3332740;83;21110;-77
2023/01/02 05:37:23;;;;;;;17.20;9.68;;;;;;;8.28;78.76;100995.33;3359632;83;21566;-77
2023/01/02 05:42:15;;;;;;;14.35;10.15;;;;;;;8.27;79.03;100981.89;3347741;83;21849;-77
2023/01/02 05:47:06;;;;;;;16.65;9.98;;;;;;;8.25;79.21;100975.80;3312304;83;20913;-77
2023/01/02 05:51:57;;;;;;;16.10;10.75;;;;;;;8.25;79.35;100969.31;3352372;83;20999;-77
2023/01/02 05:56:48;;;;;;;13.22;10.38;;;;;;;8.23;79.48;100967.10;3355358;83;21100;-77
2023/01/02 06:01:41;;;;;;;17.00;9.83;;;;;;;8.19;79.43;100969.11;3336460;83;20998;-77
2023/01/02 06:06:38;;;;;;;16.97;10.45;;;;;;;8.15;79.44;100975.04;3317031;83;20994;-77
2023/01/02 06:11:39;;;;;;;18.52;10.00;;;;;;;8.09;79.59;100966.67;3321613;83;21033;-77
2023/01/02 06:16:30;;;;;;;18.20;9.80;;;;;;;8.05;79.58;100976.87;3372557;83;20971;-77
2023/01/02 06:21:22;;;;;;;14.95;9.38;;;;;;;7.98;79.69;100972.80;3326028;83;22119;-77
2023/01/02 06:26:17;;;;;;;13.20;8.60;;;;;;;7.92;79.68;100975.22;3340578;83;21600;-77
2023/01/02 06:31:11;;;;;;;11.93;9.20;;;;;;;7.86;79.79;100971.12;3392271;83;20986;-77
2023/01/02 06:36:07;;;;;;;13.40;8.85;;;;;;;7.79;79.71;100976.93;3350691;83;21026;-77
2023/01/02 06:41:00;;;;;;;14.80;8.58;;;;;;;7.71;79.71;100975.78;3338000;83;20916;-77
2023/01/02 06:45:52;;;;;;;15.13;8.33;;;;;;;7.63;79.64;100975.55;3312222;83;21262;-78
2023/01/02 06:50:44;;;;;;;12.43;8.35;;;;;;;7.53;79.73;100971.78;3339988;83;21062;-77
2023/01/02 06:55:36;;;;;;;12.70;8.73;;;;;;;7.49;79.74;100965.15;3289537;83;21013;-77
2023/01/02 07:00:36;;;;;;;11.97;8.75;;;;;;;7.46;79.79;100967.23;3307822;83;21577;-77
2023/01/02 07:05:26;;;;;;;13.70;9.25;;;;;;;7.42;79.72;100946.85;3358608;83;21011;-77
2023/01/02 07:10:18;;;;;;;11.35;8.68;;;;;;;7.48;79.81;100944.88;3301921;83;21682;-77
2023/01/02 07:15:09;;;;;;;13.32;9.33;;;;;;;7.51;79.64;100960.91;3344526;83;21003;-77
2023/01/02 07:20:00;;;;;;;12.90;8.68;;;;;;;7.54;79.54;100964.47;3305776;83;20918;-77
2023/01/02 07:24:51;;;;;;;14.23;8.68;;;;;;;7.58;79.43;100957.30;3330761;83;20927;-77
2023/01/02 07:29:42;;;;;;;15.88;9.78;;;;;;;7.63;79.41;100949.66;3326556;83;21055;-77
2023/01/02 07:34:33;;;;;;;14.30;10.03;;;;;;;7.73;79.32;100954.32;3309513;83;21821;-77
2023/01/02 07:39:24;;;;;;;15.80;9.73;;;;;;;7.84;79.25;100948.19;3327543;83;20976;-77
2023/01/02 07:44:19;;;;;;;13.93;10.50;;;;;;;7.93;79.20;100946.31;3310735;83;21376;-77
2023/01/02 07:49:13;;;;;;;16.07;10.38;;;;;;;8.02;79.05;100940.98;3353696;83;20993;-77
2023/01/02 07:54:05;;;;;;;15.05;10.48;;;;;;;8.11;78.88;100927.88;3335089;83;21035;-77
2023/01/02 07:58:56;;;;;;;15.83;10.05;;;;;;;8.21;78.82;100919.55;3291344;83;22121;-77
2023/01/02 08:03:47;;;;;;;14.18;10.43;;;;;;;8.31;78.41;100907.73;3304942;83;20978;-77
2023/01/02 08:08:39;;;;;;;16.67;10.98;;;;;;;8.39;78.25;100904.97;3294274;83;21429;-77
2023/01/02 08:13:33;;;;;;;16.02;10.78;;;;;;;8.48;78.19;100904.39;3310541;83;21455;-78
2023/01/02 08:18:27;;;;;;;16.02;10.18;;;;;;;8.56;77.95;100902.88;3348877;83;21309;-79
2023/01/02 08:23:17;;;;;;;16.85;11.05;;;;;;;8.69;77.58;100910.17;3330389;83;21117;-79
2023/01/02 08:28:13;;;;;;;15.90;11.80;;;;;;;8.84;77.52;100914.02;3314422;83;21687;-78
2023/01/02 08:33:03;;;;;;;12.82;10.65;;;;;;;8.99;77.17;100922.63;3352230;83;20980;-78
2023/01/02 08:37:55;;;;;;;16.90;10.75;;;;;;;9.13;76.86;100911.76;3329814;83;21429;-80
2023/01/02 08:42:46;;;;;;;14.98;11.25;;;;;;;9.23;76.68;100923.27;3351600;83;20967;-78
2023/01/02 08:47:37;;;;;;;17.50;11.88;;;;;;;9.31;76.57;100932.53;3332453;83;20971;-79
2023/01/02 08:52:29;;;;;;;16.20;12.45;;;;;;;9.38;76.15;100916.71;3331418;83;20979;-78
2023/01/02 08:57:23;;;;;;;16.20;10.88;;;;;;;9.43;75.82;100915.98;3302692;83;20983;-78
2023/01/02 09:02:14;;;;;;;18.57;11.57;;;;;;;9.59;75.39;100911.17;3335284;83;20968;-78
2023/01/02 09:07:05;;;;;;;17.52;11.60;;;;;;;9.77;75.27;100901.22;3337135;83;22052;-79
2023/01/02 09:11:59;;;;;;;18.15;11.80;;;;;;;9.96;74.97;100901.63;3329368;83;21630;-79
2023/01/02 09:16:51;;;;;;;18.52;12.23;;;;;;;10.08;74.85;100891.08;3308033;83;20936;-79
2023/01/02 09:21:42;;;;;;;16.30;12.23;;;;;;;10.13;74.35;100892.92;3315105;83;20955;-78
2023/01/02 09:26:34;;;;;;;15.93;11.93;;;;;;;10.09;74.28;100885.48;3303498;83;21177;-79
2023/01/02 09:31:35;;;;;;;;;;;;;;;;;;;;;
2023/01/02 09:36:19;;;;;;;17.48;12.20;;;;;;;9.95;74.39;100880.41;3332377;83;21473;-78
2023/01/02 09:41:39;;;;;;;18.52;11.68;;;;;;;9.93;74.54;100873.88;3283953;83;21002;-78
2023/01/02 09:46:45;;;;;;;19.98;12.95;;;;;;;10.00;74.35;100880.09;3335649;83;21446;-79
2023/01/02 09:51:37;;;;;;;18.82;11.97;;;;;;;10.09;74.22;100875.09;3320018;83;21541;-78
2023/01/02 09:56:37;;;;;;;18.70;13.13;;;;;;;10.18;73.91;100880.48;3332374;83;21004;-80
2023/01/02 10:02:15;;;;;;;16.52;12.33;;;;;;;10.29;73.85;100863.38;3349500;83;21990;-77
2023/01/02 10:07:21;;;;;;;20.48;12.18;;;;;;;10.41;73.69;100861.89;3350986;83;26683;-79
2023/01/02 10:12:41;;;;;;;18.92;12.03;;;;;;;10.51;73.45;100851.27;3347393;83;20991;-79
2023/01/02 10:17:38;;;;;;;18.35;11.97;;;;;;;10.62;73.42;100851.94;3348093;83;21027;-76
2023/01/02 10:22:49;;;;;;;13.95;11.05;;;;;;;10.66;73.00;100844.64;3310968;83;21006;-80
2023/01/02 10:28:17;;;;;;;17.65;11.45;;;;;;;10.71;72.98;100842.54;3312809;83;21521;-79
2023/01/02 10:33:32;;;;;;;18.62;13.80;;;;;;;10.76;72.63;100834.41;3318679;83;21004;-79
2023/01/02 10:38:27;;;;;;;17.75;12.03;;;;;;;10.81;72.74;100834.06;3332735;83;21324;-79
2023/01/02 10:43:21;;;;;;;18.80;12.15;;;;;;;10.89;72.55;100823.35;3337509;83;21212;-79
2023/01/02 10:48:12;;;;;;;17.67;13.43;;;;;;;10.94;72.35;100811.30;3304317;83;20991;-77
2023/01/02 10:53:21;;;;;;;16.00;11.93;;;;;;;10.94;72.25;100811.30;3359295;83;21442;-81
2023/01/02 10:58:23;;;;;;;15.63;11.73;;;;;;;10.91;72.10;100809.08;3350249;83;20956;-78
2023/01/02 11:03:21;;;;;;;20.43;12.20;;;;;;;10.88;72.35;100806.02;3330427;83;20912;-79
2023/01/02 11:08:17;;;;;;;18.75;12.73;;;;;;;10.91;72.07;100794.37;3287809;83;21026;-80
2023/01/02 11:13:18;;;;;;;18.42;12.75;;;;;;;10.94;72.47;100786.59;3328500;83;20928;-78
2023/01/02 11:18:14;;;;;;;16.82;13.08;;;;;;;10.98;72.25;100784.52;3324395;83;21214;-78
2023/01/02 11:23:05;;;;;;;19.87;12.70;;;;;;;11.01;72.21;100783.23;3356593;83;28683;-78
2023/01/02 11:27:59;;;;;;;20.77;12.15;;;;;;;11.01;72.13;100778.03;3328687;83;20991;-79
2023/01/02 11:33:14;;;;;;;15.38;12.00;;;;;;;11.02;72.24;100772.00;3280562;83;20940;-80
2023/01/02 11:38:27;;;;;;;20.17;12.50;;;;;;;11.08;72.28;100769.05;3245275;86;21026;-79
2023/01/02 11:48:36;;;;;;;16.32;11.90;;;;;;;11.20;71.96;100775.74;3264212;86;21042;-79
2023/01/02 11:53:36;;;;;;;19.87;12.53;;;;;;;11.22;71.98;100777.50;3248129;86;21074;-79
2023/01/02 11:58:56;;;;;;;19.45;13.55;;;;;;;11.21;71.73;100764.47;3241011;86;21026;-78
2023/01/02 12:03:48;;;;;;;15.40;11.43;;;;;;;11.28;71.75;100758.50;3287647;84;21547;-80
2023/01/02 12:08:50;;;;;;;15.18;10.45;;;;;;;11.40;71.62;100765.19;3258931;86;21516;-79
2023/01/02 12:14:21;;;;;;;16.30;11.05;;;;;;;11.43;71.20;100740.50;3298877;83;20957;-79
2023/01/02 12:19:30;;;;;;;16.80;10.68;;;;;;;11.44;71.29;100733.13;3337429;83;21009;-78
2023/01/02 12:24:41;;;;;;;17.07;11.12;;;;;;;11.47;71.16;100736.66;3361744;83;21014;-78
2023/01/02 12:30:08;;;;;;;14.45;9.88;;;;;;;11.44;71.15;100726.62;3345303;83;21017;-79
2023/01/02 12:35:07;;;;;;;16.50;10.55;;;;;;;11.50;71.15;100743.17;3339492;83;21004;-78
2023/01/02 12:40:17;;;;;;;13.15;10.10;;;;;;;11.57;71.31;100736.80;3337197;83;21011;-79
2023/01/02 12:45:29;;;;;;;16.55;11.55;;;;;;;11.64;71.50;100736.42;3355842;83;20947;-78
2023/01/02 12:50:50;;;;;;;17.25;11.28;;;;;;;11.62;71.44;100725.12;3282997;84;21504;-78
2023/01/02 12:55:47;;;;;;;17.40;11.33;;;;;;;11.61;71.19;100723.39;3324291;83;20913;-78
2023/01/02 13:01:31;;;;;;;15.15;11.25;;;;;;;11.58;71.36;100724.64;3326600;83;25422;-78
2023/01/02 13:06:39;;;;;;;20.02;11.83;;;;;;;11.52;71.50;100714.13;3351535;83;21030;-78
2023/01/02 13:11:59;;;;;;;16.77;11.43;;;;;;;11.48;71.34;100711.05;3324137;83;20994;-78
2023/01/02 13:16:55;;;;;;;13.35;10.43;;;;;;;11.44;71.23;100709.69;3311665;83;21500;-78
2023/01/02 13:21:57;;;;;;;20.20;11.03;;;;;;;11.36;71.48;100707.87;3348495;83;26599;-79
2023/01/02 13:26:49;;;;;;;12.80;10.70;;;;;;;11.27;71.59;100695.60;3330512;83;21186;-79
2023/01/02 13:31:47;;;;;;;13.75;10.72;;;;;;;11.20;71.44;100685.95;3307022;83;20968;-79
2023/01/02 13:36:45;;;;;;;17.65;11.18;;;;;;;11.07;71.65;100692.72;3342264;83;21008;-79
2023/01/02 13:42:57;;;;;;;14.63;11.57;;;;;;;10.94;71.92;100695.54;3357233;83;20948;-79
2023/01/02 13:46:34;;;;;;;17.00;11.63;;;;;;;10.87;71.93;100701.50;3316191;83;21502;-79
2023/01/02 13:51:29;;;;;;;18.12;11.38;;;;;;;10.78;72.16;100698.77;3337725;83;21201;-79
2023/01/02 13:56:24;;;;;;;17.05;11.68;;;;;;;10.68;72.28;100688.22;3327402;83;21014;-79
2023/01/02 14:01:27;;;;;;;23.22;13.05;;;;;;;10.57;72.45;100678.08;3341288;83;21521;-79
2023/01/02 14:06:31;;;;;;;19.37;12.18;;;;;;;10.49;72.65;100687.47;3356934;83;20997;-78
2023/01/02 14:11:26;;;;;;;18.65;11.80;;;;;;;10.39;72.68;100692.95;3301179;83;20984;-78
2023/01/02 14:16:46;;;;;;;19.35;12.68;;;;;;;10.33;72.94;100697.16;3357590;83;21228;-78
2023/01/02 14:21:58;;;;;;;18.15;12.98;;;;;;;10.27;72.98;100696.16;3351762;83;21039;-78
2023/01/02 14:27:00;;;;;;;20.12;13.55;;;;;;;10.20;73.19;100691.70;3346624;83;21524;-77
2023/01/02 14:32:05;;;;;;;19.23;14.10;;;;;;;10.11;73.21;100701.50;3364773;83;20971;-77
2023/01/02 14:36:59;;;;;;;20.05;13.03;;;;;;;10.00;73.41;100695.66;3369969;83;20971;-77
2023/01/02 14:47:17;;;;;;;19.50;12.53;;;;;;;9.77;73.76;100682.23;3350526;83;21616;-77
2023/01/02 14:52:20;;;;;;;18.07;12.28;;;;;;;9.65;73.85;100669.88;3356583;83;21519;-76
2023/01/02 14:57:25;;;;;;;20.27;12.47;;;;;;;9.53;74.06;100675.28;3337273;83;21068;-79
2023/01/02 15:02:22;;;;;;;17.23;12.40;;;;;;;9.43;74.21;100669.44;3351477;83;20967;-79
2023/01/02 15:07:24;;;;;;;18.45;12.28;;;;;;;9.35;74.37;100668.39;3331279;83;21160;-78
2023/01/02 15:13:29;;;;;;;17.50;11.57;;;;;;;9.26;74.48;100670.80;3354615;83;21058;-79
2023/01/02 15:17:31;;;;;;;21.42;12.63;;;;;;;9.16;74.71;100663.25;3347709;83;21327;-78
2023/01/02 15:22:26;;;;;;;20.27;13.10;;;;;;;9.03;74.77;100664.70;3334822;83;20960;-77
2023/01/02 15:27:25;;;;;;;20.08;12.95;;;;;;;8.95;75.04;100666.23;3358544;83;21006;-78
2023/01/02 15:32:22;;;;;;;19.70;12.53;;;;;;;8.90;75.13;100682.96;3317863;83;21717;-78
2023/01/02 15:37:14;;;;;;;21.52;13.30;;;;;;;8.87;75.39;100679.42;3295643;83;21597;-77
2023/01/02 15:45:08;;;;;;;22.58;13.75;;;;;;;8.86;75.38;100680.28;3304307;83;20971;-78
2023/01/02 15:47:08;;;;;;;18.67;13.30;;;;;;;8.75;75.38;100680.90;3322016;83;21551;-79
2023/01/02 15:52:01;;;;;;;19.37;13.20;;;;;;;8.65;75.49;100698.36;3273404;83;20957;-79
2023/01/02 15:56:53;;;;;;;18.75;13.48;;;;;;;8.54;75.78;100695.93;3360751;83;22008;-78
2023/01/02 16:01:44;;;;;;;17.20;12.25;;;;;;;8.46;75.93;100702.63;3316985;83;21190;-77
2023/01/02 16:06:46;;;;;;;23.18;15.15;;;;;;;8.38;76.00;100698.09;3336749;83;21031;-77
2023/01/02 16:11:45;;;;;;;20.25;13.43;;;;;;;8.33;76.22;100699.68;3355030;83;21644;-78
2023/01/02 16:17:05;;;;;;;24.72;15.55;;;;;;;8.33;76.38;100693.20;3352434;83;20979;-78
2023/01/02 16:22:22;;;;;;;17.37;12.68;;;;;;;8.30;76.38;100685.77;3356848;83;21339;-79
2023/01/02 16:27:18;;;;;;;22.25;13.78;;;;;;;8.26;76.50;100694.31;3334918;83;21027;-79
2023/01/02 16:32:29;;;;;;;20.23;13.70;;;;;;;8.24;76.78;100685.20;3364019;83;21462;-78
2023/01/02 16:37:31;;;;;;;27.58;15.95;;;;;;;8.23;76.80;100676.99;3284146;83;21007;-78
2023/01/02 16:42:39;;;;;;;21.80;14.35;;;;;;;8.20;77.08;100659.64;3247650;84;21001;-78
2023/01/02 16:47:40;;;;;;;21.62;14.18;;;;;;;8.24;77.11;100672.68;3265702;84;22390;-79
2023/01/02 16:52:34;;;;;;;19.10;13.22;;;;;;;8.20;77.18;100671.30;3230598;84;21512;-79
2023/01/02 16:57:25;;;;;;;24.67;15.05;;;;;;;8.17;77.25;100665.16;3209955;85;21414;-78
2023/01/02 17:02:16;;;;;;;26.30;15.15;;;;;;;8.15;77.50;100644.83;3267196;86;21499;-78
2023/01/02 17:07:09;;;;;;;28.55;15.45;;;;;;;8.14;77.50;100663.81;3233837;84;21066;-79
2023/01/02 17:12:02;;;;;;;21.23;14.20;;;;;;;8.16;77.82;100641.41;3168932;87;21023;-78
2023/01/02 17:16:54;;;;;;;25.40;15.70;;;;;;;8.25;77.86;100636.45;3258955;85;20990;-78
2023/01/02 17:21:49;;;;;;;23.80;16.77;;;;;;;8.29;77.80;100642.59;3243138;84;21034;-78
2023/01/02 17:26:40;;;;;;;27.73;17.30;;;;;;;8.30;77.86;100661.16;3259076;85;20987;-78
2023/01/02 17:31:32;;;;;;;27.25;17.10;;;;;;;8.35;77.93;100677.70;3201840;84;21027;-78
2023/01/02 17:36:23;;;;;;;25.30;18.48;;;;;;;8.34;77.87;100670.36;3227526;85;21714;-78
2023/01/02 17:41:14;;;;;;;27.87;18.85;;;;;;;8.31;77.80;100649.55;3248427;85;20996;-78
2023/01/02 17:46:07;;;;;;;23.22;16.62;;;;;;;8.31;77.95;100649.98;3266730;85;21022;-78
2023/01/02 17:50:58;;;;;;;28.73;19.20;;;;;;;8.23;77.68;100648.50;3267925;85;21031;-78
2023/01/02 17:55:55;;;;;;;26.15;16.02;;;;;;;8.09;77.81;100652.45;3258470;85;20945;-78
2023/01/02 18:00:47;;;;;;;27.80;17.90;;;;;;;8.00;78.00;100641.43;3222304;85;21906;-77
2023/01/02 18:05:38;;;;;;;26.93;16.05;;;;;;;7.88;77.60;100632.04;3255173;85;20995;-78
2023/01/02 18:10:29;;;;;;;27.10;16.73;;;;;;;7.76;77.80;100645.52;3242648;85;21419;-78
2023/01/02 18:15:21;;;;;;;27.90;16.97;;;;;;;7.64;77.90;100650.83;3276860;85;21446;-78
2023/01/02 18:20:17;;;;;;;26.07;16.65;;;;;;;7.54;78.12;100657.86;3250474;85;21026;-78
2023/01/02 18:25:28;;;;;;;23.92;16.40;;;;;;;7.43;78.27;100652.81;3238569;85;21584;-78
2023/01/02 18:30:25;;;;;;;24.45;16.62;;;;;;;7.32;78.16;100652.92;3256365;85;21019;-78
2023/01/02 18:35:23;;;;;;;21.82;15.43;;;;;;;7.20;78.37;100655.59;3227163;84;21026;-79
2023/01/02 18:40:28;;;;;;;25.48;15.70;;;;;;;7.12;78.33;100650.63;3292844;85;21608;-78
2023/01/02 18:45:19;;;;;;;24.63;17.52;;;;;;;7.04;78.65;100668.89;3260270;85;21032;-77
2023/01/02 18:50:31;;;;;;;21.62;15.45;;;;;;;6.97;79.35;100642.40;3256085;85;21631;-78
2023/01/02 18:55:27;;;;;;;23.30;14.85;;;;;;;6.97;79.35;100642.40;3302008;85;21020;-78
2023/01/02 19:00:27;;;;;;;23.77;15.05;;;;;;;6.95;79.61;100662.16;3305871;84;21049;-78
2023/01/02 19:05:34;;;;;;;23.02;14.98;;;;;;;6.97;79.45;100635.94;3300438;85;21089;-79
2023/01/02 19:10:35;;;;;;;;;;;;;;;6.91;79.26;100644.81;3279137;85;20973;-78
2023/01/02 19:15:50;;;;;;;19.92;13.08;;;;;;;6.86;79.65;100639.48;3298346;85;21064;-78
2023/01/02 19:20:44;;;;;;;19.42;13.55;;;;;;;6.86;79.64;100639.06;3307385;85;20961;-78
2023/01/02 19:25:35;;;;;;;21.77;14.60;;;;;;;6.77;79.45;100631.03;3283449;85;21020;-78
2023/01/02 19:30:34;;;;;;;20.43;15.03;;;;;;;6.73;79.67;100619.28;3268450;85;21045;-78
2023/01/02 19:35:38;;;;;;;22.37;14.30;;;;;;;6.68;79.73;100632.91;3290572;85;21341;-78
2023/01/02 19:40:29;;;;;;;19.52;13.65;;;;;;;6.61;80.08;100632.25;3295357;85;21097;-78
2023/01/02 19:45:26;;;;;;;19.12;13.80;;;;;;;6.58;80.12;100642.91;3335409;83;20935;-78
2023/01/02 19:50:23;;;;;;;19.40;13.72;;;;;;;6.56;80.22;100652.31;3322942;83;21466;-78
2023/01/02 19:55:16;;;;;;;21.82;13.48;;;;;;;6.57;80.52;100652.37;3302913;83;21011;-78
2023/01/02 20:00:11;;;;;;;19.80;13.50;;;;;;;6.70;81.18;100627.80;3309428;83;22111;-78
2023/01/02 20:05:02;;;;;;;19.37;13.00;;;;;;;6.70;81.18;100627.80;3334470;83;20944;-78
2023/01/02 20:09:53;;;;;;;22.27;14.45;;;;;;;6.75;80.87;100627.95;3310689;83;21100;-78
2023/01/02 20:14:45;;;;;;;21.23;14.15;;;;;;;6.85;80.95;100654.55;3288265;83;20896;-78
2023/01/02 20:19:37;;;;;;;19.00;13.55;;;;;;;6.89;81.03;100657.68;3362983;83;21715;-78
2023/01/02 20:24:29;;;;;;;17.92;13.25;;;;;;;6.94;81.18;100660.39;3260639;83;21087;-79
2023/01/02 20:29:21;;;;;;;20.05;14.43;;;;;;;7.01;81.55;100663.63;3313686;83;21552;-79
2023/01/02 20:34:12;;;;;;;18.37;13.35;;;;;;;7.09;81.46;100667.33;3348084;83;20993;-79
2023/01/02 20:39:03;;;;;;;16.50;12.78;;;;;;;7.15;81.21;100661.04;3336151;83;20990;-79
2023/01/02 20:43:54;;;;;;;20.12;14.13;;;;;;;7.15;81.21;100661.04;3237913;85;20976;-79
2023/01/02 20:48:46;;;;;;;18.98;13.25;;;;;;;7.12;81.28;100658.38;3245655;85;21419;-78
2023/01/02 20:53:38;;;;;;;18.32;13.38;;;;;;;7.11;81.33;100666.95;3233398;83;21167;-79
2023/01/02 20:58:34;;;;;;;18.20;13.90;;;;;;;7.10;81.47;100672.08;3292133;85;21020;-79
2023/01/02 21:03:25;;;;;;;18.80;13.68;;;;;;;7.14;81.92;100679.98;3310079;84;21072;-79
2023/01/02 21:08:16;;;;;;;18.60;13.75;;;;;;;7.14;81.92;100679.98;3319219;84;21000;-79
2023/01/02 21:13:08;;;;;;;18.50;13.15;;;;;;;7.13;81.71;100662.70;3269811;85;21082;-79
2023/01/02 21:18:00;;;;;;;20.10;13.95;;;;;;;7.15;81.69;100654.58;3273476;85;22250;-79
2023/01/02 21:22:51;;;;;;;17.85;13.18;;;;;;;7.11;81.59;100672.13;3236420;85;21035;-79
2023/01/02 21:27:42;;;;;;;19.73;13.80;;;;;;;7.09;81.54;100684.56;3231135;85;21430;-79
2023/01/02 21:32:33;;;;;;;15.70;13.00;;;;;;;6.99;81.77;100671.36;3275125;85;21027;-79
2023/01/02 21:37:24;;;;;;;15.93;12.23;;;;;;;7.01;81.76;100684.30;3262772;85;21775;-80
2023/01/02 21:42:15;;;;;;;19.55;12.88;;;;;;;6.85;82.17;100679.97;3278853;83;21698;-79
2023/01/02 21:47:07;;;;;;;18.25;13.28;;;;;;;6.85;82.17;100679.97;3306574;83;21499;-78
2023/01/02 21:51:59;;;;;;;19.65;13.10;;;;;;;6.76;81.87;100680.98;3309203;83;20980;-79
2023/01/02 21:56:50;;;;;;;20.43;12.95;;;;;;;6.65;82.09;100674.17;3287542;83;20981;-78
2023/01/02 22:01:41;;;;;;;16.42;12.23;;;;;;;6.67;82.15;100684.14;3354542;83;20967;-79
2023/01/02 22:06:34;;;;;;;18.00;13.40;;;;;;;6.65;82.11;100689.67;3300060;83;22680;-79
2023/01/02 22:16:36;;;;;;;22.67;13.98;;;;;;;6.67;82.29;100689.31;3356170;82;21009;-78
2023/01/02 22:21:30;;;;;;;20.12;12.82;;;;;;;6.68;82.43;100672.09;3314261;83;21626;-79
2023/01/02 22:26:21;;;;;;;19.23;13.58;;;;;;;6.68;82.43;100671.67;3349054;83;20901;-79
2023/01/02 22:31:12;;;;;;;17.85;12.80;;;;;;;6.69;82.43;100677.73;3277645;83;20995;-79
2023/01/02 22:36:03;;;;;;;17.60;13.40;;;;;;;6.68;82.40;100682.42;3380522;83;20971;-78
2023/01/02 22:40:55;;;;;;;17.85;13.75;;;;;;;6.60;82.52;100695.49;3335246;82;21541;-79
2023/01/02 22:45:49;;;;;;;16.30;12.40;;;;;;;6.60;82.52;100695.49;3338936;83;21019;-78
2023/01/02 22:50:44;;;;;;;16.23;13.13;;;;;;;6.53;82.34;100706.45;3279339;83;38921;-79
2023/01/02 22:55:36;;;;;;;18.02;12.95;;;;;;;6.44;82.63;100702.76;3308552;83;21056;-79
2023/01/02 23:00:27;;;;;;;17.30;12.37;;;;;;;6.30;82.50;100683.34;3344216;83;20993;-79
2023/01/02 23:05:20;;;;;;;16.35;13.25;;;;;;;6.30;82.64;100707.87;3327954;83;21483;-79
2023/01/02 23:10:12;;;;;;;19.32;13.45;;;;;;;6.20;82.56;100717.41;3351235;83;21054;-79
2023/01/02 23:15:06;;;;;;;17.27;12.50;;;;;;;6.15;82.73;100721.53;3284020;83;21441;-78